Moyers, Oklahoma
Current Conditions -  °F | °C
As of 7:15 PM on Saturday 20 Dec 2014 (Local Time) from KHHW Reporting Station
Overcast Overcast  
Wind Chill: 47°   Ceiling: 2700
Heat Index: 47°   Visibility: 10mi
Dew Point: 43°   Wind: 3mph
Humidity: 86%   Direction: 90°E
Pressure: 30.19"   Gusts: NA
Location:  34.33°N, 95.65°W
Report Text: KHHW 210115Z AUTO 09003KT 10SM OVC027 09/06 A3019 RMK AO2 T00850062
Loading
Personal Weather Stations






























Interactive Weather Map New forecast layout! Learn more

10-Day Weather Forecast

Advertisements
Track Severe Weather on mobile